4

www.moto.it

MXGP. Herlings e Jonass si aggiudicano le qualifiche in Russia

4
...

Partito col patema di essere arrivato in ritardo tanto da aver saltato le prove libere a causa dello smarrimento del bagaglio, Jeffrey Herlings non ci ha messo molto a lasciarsi alle spalle il brutto momento. Gli è bastato il turno di prove cronometrate per entrare in sintonia con la pista e segnare il secondo miglior tempo dietro a Tim Gajser per poi riprendere fiato e trovare il sorriso con la vittoria della manche di qualificazione.

L’holeshot era stato di Romain Febvre, ma mentre il francese era nei problemi a causa di un paio di scivolate l’ufficiale KTM ha mantenuto un passo velocissimo che lo ha portato a scavalcare i tre piloti che aveva davanti passando al comando al 9° giro per poi tenere stretta la posizione sino al traguardo.

Alle sue spalle si è piazzato Jeremy Van Horebeek, che aveva approfittato della caduta del di squadra francese per rilevare il ruolo di battistrada, che ha preceduto l’accoppiata Kawasaki formata da Julien Lieber e Clement Desalle. Transitato al primo giro in 6ª piazza, Tony Cairoli ha rimontato sino a 3° ma poi un errore gli ha fatto perdere due posti e si è dovuto accontentare di chiudere davanti a Jeremy Seewer e Max Nagl; bene Alex Lupino che ha mantenuto sino alla fine la 9ª posizione.

Caduto alla partenza, Gajser ha invece chiuso 14° davanti all’idolo di casa Evgeny Bobryshev anche lui rimasto in fondo al gruppo.

Dopo aver siglato il miglio crono in mattinata, Pauls Jonass ha dato un colpo di spugna agli ultimi deludenti risultati confermando di essersi ritrovato vincendo la manche selettiva davanti al rivale spagnolo Jorge Prado che ha però sempre seguito i suoi passi.

3° il sudafricano della HRC Calvin Vlaanderen davanti al pilota di casa Vsevolod Brylyakov; bravo il grintoso Michele Cervellin, rimasto sempre nei top ten fino a chiudere 7°.

Azzurri in evidenza anche nella prima manche EMX250, che ha visto mattatore il francese Tom Vialle precedere Giuseppe Tropepe e Nicholas Lapucci; 7° Alberto Forato.

CLASSIFICHE

MXGP - Qualifying Race - Classification

Pos Nr Rider Nat. Fed. Bike Time laps Diff. First Diff. Prev. Bestlaptime in lap Speed
1 84 Herlings, Jeffrey NED KNMV KTM 23:42.878 14 0:00.000 0:00.000 1:39.855 6 54.3
2 89 Van Horebeek, Jeremy BEL FMB Yamaha 23:44.391 14 0:01.513 0:01.513 1:39.953 13 54.2
3 33 Lieber, Julien BEL FMB Kawasaki 23:46.089 14 0:03.211 0:01.698 1:39.341 7 54.6
4 25 Desalle, Clement BEL FMB Kawasaki 23:46.920 14 0:04.042 0:00.831 1:39.462 6 54.5
5 222 Cairoli, Antonio ITA FMI KTM 23:47.607 14 0:04.729 0:00.687 1:39.330 9 54.6
6 91 Seewer, Jeremy SUI FMS Yamaha 23:50.457 14 0:07.579 0:02.850 1:39.751 9 54.3
7 12 Nagl, Maximilian GER DMSB TM 23:52.818 14 0:09.940 0:02.361 1:40.057 13 54.2
8 99 Anstie, Max GBR ACU Husqvarna 23:54.905 14 0:12.027 0:02.087 1:40.031 11 54.2
9 77 Lupino, Alessandro ITA FMI Kawasaki 23:56.039 14 0:13.161 0:01.134 1:39.437 10 54.5
10 21 Paulin, Gautier FRA MCM Husqvarna 23:59.458 14 0:16.580 0:03.419 1:39.533 12 54.5
11 461 Febvre, Romain FRA FFM Yamaha 24:01.947 14 0:19.069 0:02.489 1:38.945 13 54.8
12 259 Coldenhoff, Glenn NED KNMV KTM 24:07.199 14 0:24.321 0:05.252 1:40.184 10 54.1
13 6 Paturel, Benoit FRA FFM KTM 24:10.430 14 0:27.552 0:03.231 1:41.364 6 53.5
14 243 Gajser, Tim SLO AMZS Honda 24:14.589 14 0:31.711 0:04.159 1:39.426 14 54.5
15 777 Bobryshev, Evgeny RUS MFR Suzuki 24:17.610 14 0:34.732 0:03.021 1:40.026 13 54.2
16 128 Monticelli, Ivo ITA FMI Yamaha 24:29.190 14 0:46.312 0:11.580 1:42.136 7 53.1
17 17 Butron, Jose ESP RFME KTM 24:32.788 14 0:49.910 0:03.598 1:41.761 11 53.3
18 152 Petrov, Petar BUL BMF Honda 24:34.566 14 0:51.688 0:01.778 1:41.934 12 53.2
19 141 Desprey, Maxime FRA FFM Kawasaki 24:37.969 14 0:55.091 0:03.403 1:42.744 12 52.8
20 22 Strijbos, Kevin BEL FMB KTM 24:39.338 14 0:56.460 0:01.369 1:41.853 10 53.2

MX2 - Qualifying Race - Classification

Pos Nr Rider Nat. Fed. Bike Time laps Diff. First Diff. Prev. Bestlaptime in lap Speed
1 1 Jonass, Pauls LAT LAMSF KTM 22:13.500 14 0:00.000 0:00.000 1:40.622 3 53.9
2 61 Prado, Jorge ESP RFME KTM 24:05.847 14 1:52.347 1:52.347 1:41.041 9 53.6
3 10 Vlaanderen, Calvin RSA KNMV Honda 24:30.052 14 2:16.552 0:24.205 1:43.001 4 52.6
4 18 Brylyakov, Vsevolod RUS MFR Yamaha 24:35.181 14 2:21.681 0:05.129 1:42.292 6 53
5 193 Geerts, Jago BEL FMB Yamaha 24:40.989 14 2:27.489 0:05.808 1:43.179 13 52.5
6 919 Watson, Ben GBR ACU Yamaha 24:44.249 14 2:30.749 0:03.260 1:43.128 9 52.6
7 747 Cervellin, Michele ITA FMI Honda 24:48.813 14 2:35.313 0:04.564 1:43.701 12 52.3
8 811 Sterry, Adam GBR ACU Kawasaki 24:55.574 14 2:42.074 0:06.761 1:43.940 5 52.1
9 14 Beaton, Jed AUS MA Kawasaki 24:58.941 14 2:45.441 0:03.367 1:43.136 5 52.6
10 19 Olsen, Thomas Kjer DEN DMU Husqvarna 25:00.489 14 2:46.989 0:01.548 1:42.736 6 52.8
11 29 Jacobi, Henry GER DMSB Husqvarna 25:09.112 14 2:55.612 0:08.623 1:45.015 14 51.6
12 66 Larranaga Olano, Iker ESP RFME Husqvarna 25:14.148 14 3:00.648 0:05.036 1:44.974 9 51.6
13 172 Van doninck, Brent BEL FMB Husqvarna 25:15.203 14 3:01.703 0:01.055 1:44.579 12 51.8
14 161 Östlund, Alvin SWE SVEMO Yamaha 25:21.248 14 3:07.748 0:06.045 1:46.115 14 51.1
15 321 Bernardini, Samuele ITA FMI TM 25:23.144 14 3:09.644 0:01.896 1:45.610 8 51.3
16 64 Covington, Thomas USA MUL Husqvarna 25:24.943 14 3:11.443 0:01.799 1:45.566 12 51.3
17 118 Rubini, Stephen FRA FFM KTM 25:31.206 14 3:17.706 0:06.263 1:44.517 12 51.9
18 426 Mewse, Conrad GBR ACU KTM 25:33.029 14 3:19.529 0:01.823 1:45.184 12 51.5
19 95 Furlotti, Simone ITA FMI Yamaha 25:39.674 14 3:26.174 0:06.645 1:46.153 13 51.1
20 338 Herbreteau, David FRA FFM KTM 24:04.310 13 1 lap 1 lap 1:47.885 6 50.2